< < Back
Terminal Aerodrome Forecast


Current Version              Previous Versions:   1  2  3  4  5  6  7  8  9  

Terminal Aerodrome Forecast

275
FTUS42 KGSP 242057 AAA
TAFCLT
TAF AMD
KCLT 242057Z 2421/2518 16007KT P6SM SCT060 SCT250
     FM250200 15005KT P6SM SCT250
     FM251200 16004KT P6SM SCT120 BKN250
     FM251500 18006KT P6SM BKN050=



Latest METAR

434
SAUS70 KWBC 250900 RRA
MTRCLT
METAR KCLT 250852Z 00000KT 10SM CLR 17/12 A3032 RMK AO2 SLP260 T01670122
55002 $


USA.gov is the U.S. government's official web portal to all federal, state and local government web resources and services.